sensor_id;sensor_type;location;lat;lon;timestamp;P1;durP1;ratioP1;P2;durP2;ratioP2
37445;SDS011;23307;51.136;14.942;2023-02-28T00:00:21;22.37;;;14.17;;
37445;SDS011;23307;51.136;14.942;2023-02-28T00:02:47;24.13;;;13.97;;
37445;SDS011;23307;51.136;14.942;2023-02-28T00:05:13;22.27;;;13.40;;
37445;SDS011;23307;51.136;14.942;2023-02-28T00:07:40;23.90;;;13.97;;
37445;SDS011;23307;51.136;14.942;2023-02-28T00:10:07;26.57;;;13.90;;
37445;SDS011;23307;51.136;14.942;2023-02-28T00:12:37;22.63;;;13.10;;
37445;SDS011;23307;51.136;14.942;2023-02-28T00:15:07;21.23;;;13.70;;
37445;SDS011;23307;51.136;14.942;2023-02-28T00:17:34;22.03;;;12.80;;
37445;SDS011;23307;51.136;14.942;2023-02-28T00:20:00;23.80;;;13.63;;
37445;SDS011;23307;51.136;14.942;2023-02-28T00:22:37;24.97;;;14.40;;
37445;SDS011;23307;51.136;14.942;2023-02-28T00:25:03;24.10;;;14.70;;
37445;SDS011;23307;51.136;14.942;2023-02-28T00:27:29;21.07;;;13.10;;
37445;SDS011;23307;51.136;14.942;2023-02-28T00:29:55;22.73;;;13.63;;
37445;SDS011;23307;51.136;14.942;2023-02-28T00:32:20;23.77;;;13.87;;
37445;SDS011;23307;51.136;14.942;2023-02-28T00:34:46;21.67;;;13.80;;
37445;SDS011;23307;51.136;14.942;2023-02-28T00:37:12;24.97;;;14.53;;
37445;SDS011;23307;51.136;14.942;2023-02-28T00:39:37;21.67;;;13.40;;
37445;SDS011;23307;51.136;14.942;2023-02-28T00:42:04;25.07;;;13.60;;
37445;SDS011;23307;51.136;14.942;2023-02-28T00:44:30;21.57;;;13.70;;
37445;SDS011;23307;51.136;14.942;2023-02-28T00:46:56;24.37;;;14.80;;
37445;SDS011;23307;51.136;14.942;2023-02-28T00:49:22;21.53;;;13.33;;
37445;SDS011;23307;51.136;14.942;2023-02-28T00:51:48;25.17;;;14.70;;
37445;SDS011;23307;51.136;14.942;2023-02-28T00:54:14;23.83;;;14.03;;
37445;SDS011;23307;51.136;14.942;2023-02-28T00:56:40;25.60;;;14.47;;
37445;SDS011;23307;51.136;14.942;2023-02-28T00:59:05;24.57;;;14.47;;
37445;SDS011;23307;51.136;14.942;2023-02-28T01:01:31;24.10;;;13.80;;
37445;SDS011;23307;51.136;14.942;2023-02-28T01:03:57;22.13;;;14.17;;
37445;SDS011;23307;51.136;14.942;2023-02-28T01:06:22;20.10;;;13.57;;
37445;SDS011;23307;51.136;14.942;2023-02-28T01:08:48;21.90;;;13.43;;
37445;SDS011;23307;51.136;14.942;2023-02-28T01:11:14;22.00;;;13.30;;
37445;SDS011;23307;51.136;14.942;2023-02-28T01:13:41;21.47;;;13.67;;
37445;SDS011;23307;51.136;14.942;2023-02-28T01:16:07;22.37;;;13.07;;
37445;SDS011;23307;51.136;14.942;2023-02-28T01:18:33;21.10;;;12.97;;
37445;SDS011;23307;51.136;14.942;2023-02-28T01:21:02;23.20;;;13.37;;
37445;SDS011;23307;51.136;14.942;2023-02-28T01:23:31;20.13;;;12.53;;
37445;SDS011;23307;51.136;14.942;2023-02-28T01:25:57;19.53;;;12.60;;
37445;SDS011;23307;51.136;14.942;2023-02-28T01:28:22;20.83;;;12.67;;
37445;SDS011;23307;51.136;14.942;2023-02-28T01:30:50;20.97;;;12.87;;
37445;SDS011;23307;51.136;14.942;2023-02-28T01:33:16;22.07;;;12.60;;
37445;SDS011;23307;51.136;14.942;2023-02-28T01:35:41;22.27;;;12.83;;
37445;SDS011;23307;51.136;14.942;2023-02-28T01:38:07;20.27;;;12.77;;
37445;SDS011;23307;51.136;14.942;2023-02-28T01:40:32;23.93;;;12.87;;
37445;SDS011;23307;51.136;14.942;2023-02-28T01:42:58;20.97;;;13.57;;
37445;SDS011;23307;51.136;14.942;2023-02-28T01:45:25;21.90;;;13.07;;
37445;SDS011;23307;51.136;14.942;2023-02-28T01:48:04;22.13;;;13.13;;
37445;SDS011;23307;51.136;14.942;2023-02-28T01:50:35;19.57;;;11.70;;
37445;SDS011;23307;51.136;14.942;2023-02-28T01:53:05;21.20;;;13.00;;
37445;SDS011;23307;51.136;14.942;2023-02-28T01:55:34;24.13;;;13.37;;
37445;SDS011;23307;51.136;14.942;2023-02-28T01:58:02;24.30;;;13.87;;
37445;SDS011;23307;51.136;14.942;2023-02-28T02:00:32;21.17;;;12.93;;
37445;SDS011;23307;51.136;14.942;2023-02-28T02:03:04;22.40;;;13.47;;
37445;SDS011;23307;51.136;14.942;2023-02-28T02:05:34;24.13;;;13.87;;
37445;SDS011;23307;51.136;14.942;2023-02-28T02:08:22;21.27;;;13.00;;
37445;SDS011;23307;51.136;14.942;2023-02-28T02:10:51;20.33;;;12.93;;
37445;SDS011;23307;51.136;14.942;2023-02-28T02:13:37;20.50;;;12.37;;
37445;SDS011;23307;51.136;14.942;2023-02-28T02:16:52;25.33;;;13.20;;
37445;SDS011;23307;51.136;14.942;2023-02-28T02:22:58;16.57;;;10.63;;
37445;SDS011;23307;51.136;14.942;2023-02-28T02:25:40;21.60;;;12.03;;
37445;SDS011;23307;51.136;14.942;2023-02-28T02:28:21;20.77;;;11.23;;
37445;SDS011;23307;51.136;14.942;2023-02-28T02:31:13;20.97;;;12.43;;
37445;SDS011;23307;51.136;14.942;2023-02-28T02:34:13;18.93;;;12.07;;
37445;SDS011;23307;51.136;14.942;2023-02-28T02:37:09;18.47;;;12.13;;
37445;SDS011;23307;51.136;14.942;2023-02-28T02:40:16;21.13;;;11.80;;
37445;SDS011;23307;51.136;14.942;2023-02-28T02:45:31;19.17;;;11.90;;
37445;SDS011;23307;51.136;14.942;2023-02-28T02:48:13;22.83;;;13.40;;
37445;SDS011;23307;51.136;14.942;2023-02-28T02:50:44;19.40;;;12.33;;
37445;SDS011;23307;51.136;14.942;2023-02-28T02:53:13;22.90;;;12.87;;
37445;SDS011;23307;51.136;14.942;2023-02-28T02:55:43;22.87;;;12.80;;
37445;SDS011;23307;51.136;14.942;2023-02-28T02:58:13;22.03;;;12.43;;
37445;SDS011;23307;51.136;14.942;2023-02-28T03:00:42;20.13;;;12.77;;
37445;SDS011;23307;51.136;14.942;2023-02-28T03:03:12;20.17;;;11.70;;
37445;SDS011;23307;51.136;14.942;2023-02-28T03:05:42;20.03;;;12.40;;
37445;SDS011;23307;51.136;14.942;2023-02-28T03:08:11;20.07;;;12.20;;
37445;SDS011;23307;51.136;14.942;2023-02-28T03:10:38;19.17;;;11.13;;
37445;SDS011;23307;51.136;14.942;2023-02-28T03:13:16;17.10;;;10.63;;
37445;SDS011;23307;51.136;14.942;2023-02-28T03:15:55;21.17;;;11.23;;
37445;SDS011;23307;51.136;14.942;2023-02-28T03:18:36;16.97;;;10.10;;
37445;SDS011;23307;51.136;14.942;2023-02-28T03:21:16;18.80;;;11.00;;
37445;SDS011;23307;51.136;14.942;2023-02-28T03:23:46;19.53;;;11.00;;
37445;SDS011;23307;51.136;14.942;2023-02-28T03:26:21;17.90;;;10.87;;
37445;SDS011;23307;51.136;14.942;2023-02-28T03:28:53;17.07;;;9.73;;
37445;SDS011;23307;51.136;14.942;2023-02-28T03:31:27;16.37;;;10.27;;
37445;SDS011;23307;51.136;14.942;2023-02-28T03:34:02;13.17;;;9.13;;
37445;SDS011;23307;51.136;14.942;2023-02-28T03:36:35;14.80;;;9.90;;
37445;SDS011;23307;51.136;14.942;2023-02-28T03:39:08;16.10;;;10.23;;
37445;SDS011;23307;51.136;14.942;2023-02-28T03:41:43;15.10;;;9.70;;
37445;SDS011;23307;51.136;14.942;2023-02-28T03:44:21;15.13;;;9.87;;
37445;SDS011;23307;51.136;14.942;2023-02-28T03:47:00;14.17;;;9.23;;
37445;SDS011;23307;51.136;14.942;2023-02-28T03:49:44;14.23;;;9.40;;
37445;SDS011;23307;51.136;14.942;2023-02-28T03:52:31;15.97;;;9.93;;
37445;SDS011;23307;51.136;14.942;2023-02-28T03:55:01;13.80;;;9.07;;
37445;SDS011;23307;51.136;14.942;2023-02-28T03:57:43;15.50;;;10.03;;
37445;SDS011;23307;51.136;14.942;2023-02-28T04:00:46;14.80;;;9.30;;
37445;SDS011;23307;51.136;14.942;2023-02-28T04:03:15;13.23;;;9.07;;
37445;SDS011;23307;51.136;14.942;2023-02-28T04:05:48;15.07;;;9.20;;
37445;SDS011;23307;51.136;14.942;2023-02-28T04:08:16;15.87;;;8.97;;
37445;SDS011;23307;51.136;14.942;2023-02-28T04:10:42;13.37;;;8.43;;
37445;SDS011;23307;51.136;14.942;2023-02-28T04:13:13;13.90;;;9.03;;
37445;SDS011;23307;51.136;14.942;2023-02-28T04:15:38;15.10;;;9.00;;
37445;SDS011;23307;51.136;14.942;2023-02-28T04:18:03;15.77;;;9.20;;
37445;SDS011;23307;51.136;14.942;2023-02-28T04:20:29;16.33;;;9.03;;
37445;SDS011;23307;51.136;14.942;2023-02-28T04:22:54;18.07;;;9.50;;
37445;SDS011;23307;51.136;14.942;2023-02-28T04:25:20;16.27;;;9.10;;
37445;SDS011;23307;51.136;14.942;2023-02-28T04:27:45;12.00;;;8.63;;
37445;SDS011;23307;51.136;14.942;2023-02-28T04:30:11;13.87;;;8.87;;
37445;SDS011;23307;51.136;14.942;2023-02-28T04:32:37;15.07;;;9.13;;
37445;SDS011;23307;51.136;14.942;2023-02-28T04:35:02;14.70;;;9.00;;
37445;SDS011;23307;51.136;14.942;2023-02-28T04:37:28;16.80;;;9.87;;
37445;SDS011;23307;51.136;14.942;2023-02-28T04:39:53;15.67;;;9.33;;
37445;SDS011;23307;51.136;14.942;2023-02-28T04:42:19;17.77;;;9.30;;
37445;SDS011;23307;51.136;14.942;2023-02-28T04:44:45;12.67;;;8.70;;
37445;SDS011;23307;51.136;14.942;2023-02-28T04:47:10;14.33;;;9.23;;
37445;SDS011;23307;51.136;14.942;2023-02-28T04:49:36;15.03;;;9.77;;
37445;SDS011;23307;51.136;14.942;2023-02-28T04:52:01;19.00;;;9.37;;
37445;SDS011;23307;51.136;14.942;2023-02-28T04:54:27;13.33;;;8.70;;
37445;SDS011;23307;51.136;14.942;2023-02-28T04:56:53;15.83;;;9.10;;
37445;SDS011;23307;51.136;14.942;2023-02-28T04:59:19;11.00;;;8.33;;
37445;SDS011;23307;51.136;14.942;2023-02-28T05:01:46;14.47;;;8.63;;
37445;SDS011;23307;51.136;14.942;2023-02-28T05:04:13;13.83;;;8.90;;
37445;SDS011;23307;51.136;14.942;2023-02-28T05:06:39;11.13;;;7.63;;
37445;SDS011;23307;51.136;14.942;2023-02-28T05:09:04;10.43;;;7.43;;
37445;SDS011;23307;51.136;14.942;2023-02-28T05:11:30;12.43;;;7.60;;
37445;SDS011;23307;51.136;14.942;2023-02-28T05:14:04;12.77;;;8.27;;
37445;SDS011;23307;51.136;14.942;2023-02-28T05:16:32;12.83;;;8.37;;
37445;SDS011;23307;51.136;14.942;2023-02-28T05:18:58;14.17;;;8.43;;
37445;SDS011;23307;51.136;14.942;2023-02-28T05:21:30;13.07;;;7.77;;
37445;SDS011;23307;51.136;14.942;2023-02-28T05:23:57;11.33;;;7.60;;
37445;SDS011;23307;51.136;14.942;2023-02-28T05:26:25;22.17;;;10.83;;
37445;SDS011;23307;51.136;14.942;2023-02-28T05:28:51;19.00;;;9.43;;
37445;SDS011;23307;51.136;14.942;2023-02-28T05:31:17;22.43;;;11.47;;
37445;SDS011;23307;51.136;14.942;2023-02-28T05:33:42;20.70;;;11.77;;
37445;SDS011;23307;51.136;14.942;2023-02-28T05:36:08;21.70;;;11.53;;
37445;SDS011;23307;51.136;14.942;2023-02-28T05:38:34;21.20;;;11.83;;
37445;SDS011;23307;51.136;14.942;2023-02-28T05:40:59;22.83;;;10.87;;
37445;SDS011;23307;51.136;14.942;2023-02-28T05:43:25;20.63;;;10.43;;
37445;SDS011;23307;51.136;14.942;2023-02-28T05:45:50;19.63;;;9.43;;
37445;SDS011;23307;51.136;14.942;2023-02-28T05:48:16;15.00;;;8.70;;
37445;SDS011;23307;51.136;14.942;2023-02-28T05:50:43;13.03;;;7.80;;
37445;SDS011;23307;51.136;14.942;2023-02-28T05:53:09;11.07;;;8.00;;
37445;SDS011;23307;51.136;14.942;2023-02-28T05:55:35;13.90;;;8.47;;
37445;SDS011;23307;51.136;14.942;2023-02-28T05:58:02;14.27;;;8.43;;
37445;SDS011;23307;51.136;14.942;2023-02-28T06:00:27;13.67;;;9.07;;
37445;SDS011;23307;51.136;14.942;2023-02-28T06:02:53;13.77;;;9.00;;
37445;SDS011;23307;51.136;14.942;2023-02-28T06:05:21;13.83;;;8.50;;
37445;SDS011;23307;51.136;14.942;2023-02-28T06:07:47;13.70;;;8.30;;
37445;SDS011;23307;51.136;14.942;2023-02-28T06:10:13;13.33;;;8.90;;
37445;SDS011;23307;51.136;14.942;2023-02-28T06:12:38;14.23;;;9.30;;
37445;SDS011;23307;51.136;14.942;2023-02-28T06:15:06;15.80;;;9.70;;
37445;SDS011;23307;51.136;14.942;2023-02-28T06:17:32;15.80;;;9.57;;
37445;SDS011;23307;51.136;14.942;2023-02-28T06:19:58;14.03;;;8.50;;
37445;SDS011;23307;51.136;14.942;2023-02-28T06:22:23;14.53;;;9.53;;
37445;SDS011;23307;51.136;14.942;2023-02-28T06:24:49;15.03;;;9.80;;
37445;SDS011;23307;51.136;14.942;2023-02-28T06:27:14;14.17;;;9.10;;
37445;SDS011;23307;51.136;14.942;2023-02-28T06:29:40;16.40;;;9.33;;
37445;SDS011;23307;51.136;14.942;2023-02-28T06:32:05;14.50;;;8.53;;
37445;SDS011;23307;51.136;14.942;2023-02-28T06:34:31;16.20;;;9.57;;
37445;SDS011;23307;51.136;14.942;2023-02-28T06:36:58;15.73;;;9.17;;
37445;SDS011;23307;51.136;14.942;2023-02-28T06:39:27;13.33;;;8.23;;
37445;SDS011;23307;51.136;14.942;2023-02-28T06:41:55;15.33;;;9.17;;
37445;SDS011;23307;51.136;14.942;2023-02-28T06:44:21;14.33;;;9.50;;
37445;SDS011;23307;51.136;14.942;2023-02-28T06:46:48;14.20;;;9.47;;
37445;SDS011;23307;51.136;14.942;2023-02-28T06:49:13;17.70;;;9.70;;
37445;SDS011;23307;51.136;14.942;2023-02-28T06:51:39;14.47;;;9.97;;
37445;SDS011;23307;51.136;14.942;2023-02-28T06:54:06;17.17;;;9.57;;
37445;SDS011;23307;51.136;14.942;2023-02-28T06:56:35;15.17;;;10.07;;
37445;SDS011;23307;51.136;14.942;2023-02-28T06:59:01;16.20;;;9.60;;
37445;SDS011;23307;51.136;14.942;2023-02-28T07:01:26;17.47;;;10.27;;
37445;SDS011;23307;51.136;14.942;2023-02-28T07:03:53;16.40;;;10.13;;
37445;SDS011;23307;51.136;14.942;2023-02-28T07:06:19;15.33;;;10.00;;
37445;SDS011;23307;51.136;14.942;2023-02-28T07:08:49;18.60;;;10.30;;
37445;SDS011;23307;51.136;14.942;2023-02-28T07:11:15;15.57;;;10.40;;
37445;SDS011;23307;51.136;14.942;2023-02-28T07:13:41;16.57;;;10.33;;
37445;SDS011;23307;51.136;14.942;2023-02-28T07:16:07;19.73;;;10.93;;
37445;SDS011;23307;51.136;14.942;2023-02-28T07:18:36;18.60;;;10.30;;
37445;SDS011;23307;51.136;14.942;2023-02-28T07:21:02;18.93;;;10.40;;
37445;SDS011;23307;51.136;14.942;2023-02-28T07:23:29;16.93;;;10.83;;
37445;SDS011;23307;51.136;14.942;2023-02-28T07:25:54;18.63;;;12.50;;
37445;SDS011;23307;51.136;14.942;2023-02-28T07:28:20;19.07;;;11.50;;
37445;SDS011;23307;51.136;14.942;2023-02-28T07:30:45;21.97;;;12.10;;
37445;SDS011;23307;51.136;14.942;2023-02-28T07:33:11;18.03;;;10.83;;
37445;SDS011;23307;51.136;14.942;2023-02-28T07:35:36;19.53;;;11.53;;
37445;SDS011;23307;51.136;14.942;2023-02-28T07:38:02;16.73;;;11.13;;
37445;SDS011;23307;51.136;14.942;2023-02-28T07:40:28;18.97;;;10.57;;
37445;SDS011;23307;51.136;14.942;2023-02-28T07:42:53;19.03;;;10.53;;
37445;SDS011;23307;51.136;14.942;2023-02-28T07:45:19;19.80;;;11.37;;
37445;SDS011;23307;51.136;14.942;2023-02-28T07:47:46;18.83;;;11.53;;
37445;SDS011;23307;51.136;14.942;2023-02-28T07:50:12;18.43;;;11.63;;
37445;SDS011;23307;51.136;14.942;2023-02-28T07:52:39;17.10;;;11.47;;
37445;SDS011;23307;51.136;14.942;2023-02-28T07:55:06;21.43;;;11.10;;
37445;SDS011;23307;51.136;14.942;2023-02-28T07:57:33;16.53;;;10.50;;
37445;SDS011;23307;51.136;14.942;2023-02-28T07:59:59;19.67;;;11.10;;
37445;SDS011;23307;51.136;14.942;2023-02-28T08:02:24;19.80;;;11.23;;
37445;SDS011;23307;51.136;14.942;2023-02-28T08:04:50;19.70;;;12.23;;
37445;SDS011;23307;51.136;14.942;2023-02-28T08:07:16;21.67;;;12.97;;
37445;SDS011;23307;51.136;14.942;2023-02-28T08:09:42;17.13;;;10.90;;
37445;SDS011;23307;51.136;14.942;2023-02-28T08:12:09;18.37;;;11.70;;
37445;SDS011;23307;51.136;14.942;2023-02-28T08:14:35;16.87;;;10.37;;
37445;SDS011;23307;51.136;14.942;2023-02-28T08:17:01;16.00;;;10.73;;
37445;SDS011;23307;51.136;14.942;2023-02-28T08:19:28;16.57;;;10.43;;
37445;SDS011;23307;51.136;14.942;2023-02-28T08:21:54;17.00;;;11.00;;
37445;SDS011;23307;51.136;14.942;2023-02-28T08:24:20;20.93;;;11.17;;
37445;SDS011;23307;51.136;14.942;2023-02-28T08:26:45;16.07;;;11.20;;
37445;SDS011;23307;51.136;14.942;2023-02-28T08:29:11;16.70;;;10.67;;
37445;SDS011;23307;51.136;14.942;2023-02-28T08:31:36;17.70;;;11.87;;
37445;SDS011;23307;51.136;14.942;2023-02-28T08:34:08;17.23;;;11.03;;
37445;SDS011;23307;51.136;14.942;2023-02-28T08:36:35;15.27;;;10.40;;
37445;SDS011;23307;51.136;14.942;2023-02-28T08:39:01;14.40;;;9.63;;
37445;SDS011;23307;51.136;14.942;2023-02-28T08:41:27;14.37;;;9.67;;
37445;SDS011;23307;51.136;14.942;2023-02-28T08:43:53;19.67;;;10.77;;
37445;SDS011;23307;51.136;14.942;2023-02-28T08:46:18;16.30;;;10.23;;
37445;SDS011;23307;51.136;14.942;2023-02-28T08:48:44;16.13;;;10.50;;
37445;SDS011;23307;51.136;14.942;2023-02-28T08:51:14;16.87;;;9.80;;
37445;SDS011;23307;51.136;14.942;2023-02-28T08:53:43;14.83;;;10.00;;
37445;SDS011;23307;51.136;14.942;2023-02-28T08:56:10;16.27;;;10.43;;
37445;SDS011;23307;51.136;14.942;2023-02-28T08:58:38;15.80;;;10.33;;
37445;SDS011;23307;51.136;14.942;2023-02-28T09:01:07;15.43;;;10.00;;
37445;SDS011;23307;51.136;14.942;2023-02-28T09:03:38;16.73;;;9.00;;
37445;SDS011;23307;51.136;14.942;2023-02-28T09:06:04;14.53;;;9.13;;
37445;SDS011;23307;51.136;14.942;2023-02-28T09:08:30;15.07;;;9.80;;
37445;SDS011;23307;51.136;14.942;2023-02-28T09:10:56;14.43;;;9.20;;
37445;SDS011;23307;51.136;14.942;2023-02-28T09:13:23;14.00;;;8.77;;
37445;SDS011;23307;51.136;14.942;2023-02-28T09:15:49;11.30;;;8.70;;
37445;SDS011;23307;51.136;14.942;2023-02-28T09:18:15;13.73;;;8.90;;
37445;SDS011;23307;51.136;14.942;2023-02-28T09:20:41;12.27;;;8.67;;
37445;SDS011;23307;51.136;14.942;2023-02-28T09:23:08;11.20;;;8.80;;
37445;SDS011;23307;51.136;14.942;2023-02-28T09:25:35;15.83;;;9.80;;
37445;SDS011;23307;51.136;14.942;2023-02-28T09:28:01;16.00;;;9.80;;
37445;SDS011;23307;51.136;14.942;2023-02-28T09:30:27;14.63;;;10.07;;
37445;SDS011;23307;51.136;14.942;2023-02-28T09:32:53;15.47;;;9.93;;
37445;SDS011;23307;51.136;14.942;2023-02-28T09:35:20;14.37;;;9.80;;
37445;SDS011;23307;51.136;14.942;2023-02-28T09:37:47;14.97;;;10.50;;
37445;SDS011;23307;51.136;14.942;2023-02-28T09:40:14;15.47;;;9.53;;
37445;SDS011;23307;51.136;14.942;2023-02-28T09:42:42;16.77;;;10.97;;
37445;SDS011;23307;51.136;14.942;2023-02-28T09:45:16;16.03;;;10.50;;
37445;SDS011;23307;51.136;14.942;2023-02-28T09:47:48;14.90;;;9.63;;
37445;SDS011;23307;51.136;14.942;2023-02-28T09:52:53;14.77;;;8.97;;
37445;SDS011;23307;51.136;14.942;2023-02-28T09:58:04;14.97;;;9.10;;
37445;SDS011;23307;51.136;14.942;2023-02-28T10:00:35;14.30;;;8.97;;
37445;SDS011;23307;51.136;14.942;2023-02-28T10:05:51;13.67;;;9.17;;
37445;SDS011;23307;51.136;14.942;2023-02-28T10:08:43;15.17;;;8.63;;
37445;SDS011;23307;51.136;14.942;2023-02-28T10:11:14;13.60;;;9.10;;
37445;SDS011;23307;51.136;14.942;2023-02-28T10:13:58;14.20;;;7.97;;
37445;SDS011;23307;51.136;14.942;2023-02-28T10:16:48;12.77;;;8.47;;
37445;SDS011;23307;51.136;14.942;2023-02-28T10:19:25;12.03;;;7.50;;
37445;SDS011;23307;51.136;14.942;2023-02-28T10:21:59;11.33;;;8.20;;
37445;SDS011;23307;51.136;14.942;2023-02-28T10:24:46;12.70;;;8.33;;
37445;SDS011;23307;51.136;14.942;2023-02-28T10:29:54;11.43;;;8.40;;
37445;SDS011;23307;51.136;14.942;2023-02-28T10:32:23;12.07;;;8.40;;
37445;SDS011;23307;51.136;14.942;2023-02-28T10:37:42;12.70;;;9.03;;
37445;SDS011;23307;51.136;14.942;2023-02-28T10:43:17;14.93;;;9.40;;
37445;SDS011;23307;51.136;14.942;2023-02-28T10:45:39;12.00;;;8.47;;
37445;SDS011;23307;51.136;14.942;2023-02-28T10:50:51;13.27;;;8.40;;
37445;SDS011;23307;51.136;14.942;2023-02-28T10:56:30;12.10;;;8.80;;
37445;SDS011;23307;51.136;14.942;2023-02-28T11:03:55;12.60;;;8.70;;
37445;SDS011;23307;51.136;14.942;2023-02-28T11:06:23;11.57;;;8.57;;
37445;SDS011;23307;51.136;14.942;2023-02-28T11:09:02;11.67;;;8.70;;
37445;SDS011;23307;51.136;14.942;2023-02-28T11:11:45;11.73;;;8.57;;
37445;SDS011;23307;51.136;14.942;2023-02-28T11:14:17;11.40;;;8.30;;
37445;SDS011;23307;51.136;14.942;2023-02-28T11:16:50;13.60;;;8.50;;
37445;SDS011;23307;51.136;14.942;2023-02-28T11:19:18;11.90;;;8.53;;
37445;SDS011;23307;51.136;14.942;2023-02-28T11:21:51;12.17;;;8.70;;
37445;SDS011;23307;51.136;14.942;2023-02-28T11:24:28;11.10;;;8.57;;
37445;SDS011;23307;51.136;14.942;2023-02-28T11:26:58;11.27;;;8.83;;
37445;SDS011;23307;51.136;14.942;2023-02-28T11:29:24;11.50;;;9.20;;
37445;SDS011;23307;51.136;14.942;2023-02-28T11:34:38;15.67;;;9.37;;
37445;SDS011;23307;51.136;14.942;2023-02-28T11:37:09;14.53;;;9.73;;
37445;SDS011;23307;51.136;14.942;2023-02-28T11:39:43;11.67;;;8.70;;
37445;SDS011;23307;51.136;14.942;2023-02-28T11:44:58;13.17;;;8.80;;
37445;SDS011;23307;51.136;14.942;2023-02-28T11:47:45;11.83;;;8.47;;
37445;SDS011;23307;51.136;14.942;2023-02-28T11:50:41;11.13;;;8.60;;
37445;SDS011;23307;51.136;14.942;2023-02-28T11:55:52;13.60;;;9.20;;
37445;SDS011;23307;51.136;14.942;2023-02-28T11:58:43;12.07;;;8.80;;
37445;SDS011;23307;51.136;14.942;2023-02-28T12:01:38;12.27;;;9.63;;
37445;SDS011;23307;51.136;14.942;2023-02-28T12:04:34;12.57;;;9.47;;
37445;SDS011;23307;51.136;14.942;2023-02-28T12:07:21;12.23;;;9.13;;
37445;SDS011;23307;51.136;14.942;2023-02-28T12:10:24;12.77;;;9.10;;
37445;SDS011;23307;51.136;14.942;2023-02-28T12:13:08;11.10;;;8.73;;
37445;SDS011;23307;51.136;14.942;2023-02-28T12:18:59;12.10;;;9.03;;
37445;SDS011;23307;51.136;14.942;2023-02-28T12:27:09;13.80;;;9.50;;
37445;SDS011;23307;51.136;14.942;2023-02-28T12:29:44;12.37;;;9.10;;
37445;SDS011;23307;51.136;14.942;2023-02-28T12:35:10;13.83;;;9.60;;
37445;SDS011;23307;51.136;14.942;2023-02-28T12:38:01;11.57;;;9.23;;
37445;SDS011;23307;51.136;14.942;2023-02-28T12:40:43;11.63;;;9.30;;
37445;SDS011;23307;51.136;14.942;2023-02-28T12:43:14;13.90;;;9.87;;
37445;SDS011;23307;51.136;14.942;2023-02-28T12:46:05;13.03;;;9.50;;
37445;SDS011;23307;51.136;14.942;2023-02-28T12:48:40;12.87;;;10.23;;
37445;SDS011;23307;51.136;14.942;2023-02-28T12:51:09;14.90;;;9.70;;
37445;SDS011;23307;51.136;14.942;2023-02-28T12:56:32;12.55;;;9.40;;
37445;SDS011;23307;51.136;14.942;2023-02-28T12:59:10;13.07;;;9.95;;
37445;SDS011;23307;51.136;14.942;2023-02-28T13:01:46;13.23;;;10.10;;
37445;SDS011;23307;51.136;14.942;2023-02-28T13:07:31;11.52;;;9.60;;
37445;SDS011;23307;51.136;14.942;2023-02-28T13:10:12;12.82;;;9.68;;
37445;SDS011;23307;51.136;14.942;2023-02-28T13:12:47;13.63;;;9.90;;
37445;SDS011;23307;51.136;14.942;2023-02-28T13:15:27;12.85;;;8.90;;
37445;SDS011;23307;51.136;14.942;2023-02-28T13:17:57;11.43;;;9.63;;
37445;SDS011;23307;51.136;14.942;2023-02-28T13:20:25;14.40;;;10.18;;
37445;SDS011;23307;51.136;14.942;2023-02-28T13:22:54;11.75;;;9.20;;
37445;SDS011;23307;51.136;14.942;2023-02-28T13:27:48;17.10;;;9.60;;
37445;SDS011;23307;51.136;14.942;2023-02-28T13:33:36;13.00;;;9.43;;
37445;SDS011;23307;51.136;14.942;2023-02-28T13:36:26;10.80;;;8.95;;
37445;SDS011;23307;51.136;14.942;2023-02-28T13:39:03;10.30;;;8.70;;
37445;SDS011;23307;51.136;14.942;2023-02-28T13:47:31;11.70;;;9.40;;
37445;SDS011;23307;51.136;14.942;2023-02-28T14:06:37;12.20;;;9.48;;
37445;SDS011;23307;51.136;14.942;2023-02-28T14:12:49;11.82;;;9.65;;
37445;SDS011;23307;51.136;14.942;2023-02-28T14:15:04;12.38;;;9.38;;
37445;SDS011;23307;51.136;14.942;2023-02-28T14:17:53;11.65;;;9.13;;
37445;SDS011;23307;51.136;14.942;2023-02-28T14:20:21;14.65;;;10.27;;
37445;SDS011;23307;51.136;14.942;2023-02-28T14:23:00;11.25;;;8.55;;
37445;SDS011;23307;51.136;14.942;2023-02-28T14:25:40;11.25;;;9.23;;
37445;SDS011;23307;51.136;14.942;2023-02-28T14:28:37;11.50;;;9.60;;
37445;SDS011;23307;51.136;14.942;2023-02-28T14:31:15;10.30;;;8.77;;
37445;SDS011;23307;51.136;14.942;2023-02-28T14:34:03;10.90;;;8.68;;
37445;SDS011;23307;51.136;14.942;2023-02-28T14:36:48;9.93;;;8.65;;
37445;SDS011;23307;51.136;14.942;2023-02-28T14:39:16;13.50;;;9.00;;
37445;SDS011;23307;51.136;14.942;2023-02-28T14:41:45;9.35;;;8.20;;
37445;SDS011;23307;51.136;14.942;2023-02-28T14:46:43;10.13;;;8.20;;
37445;SDS011;23307;51.136;14.942;2023-02-28T14:49:21;12.70;;;8.30;;
37445;SDS011;23307;51.136;14.942;2023-02-28T14:54:42;11.52;;;8.32;;
37445;SDS011;23307;51.136;14.942;2023-02-28T14:57:26;12.75;;;7.93;;
37445;SDS011;23307;51.136;14.942;2023-02-28T15:00:04;11.70;;;7.85;;
37445;SDS011;23307;51.136;14.942;2023-02-28T15:02:38;9.50;;;7.45;;
37445;SDS011;23307;51.136;14.942;2023-02-28T15:07:43;9.73;;;7.10;;
37445;SDS011;23307;51.136;14.942;2023-02-28T15:10:20;8.55;;;7.05;;
37445;SDS011;23307;51.136;14.942;2023-02-28T15:15:45;9.95;;;7.35;;
37445;SDS011;23307;51.136;14.942;2023-02-28T15:18:25;9.32;;;7.25;;
37445;SDS011;23307;51.136;14.942;2023-02-28T15:21:11;13.00;;;7.47;;
37445;SDS011;23307;51.136;14.942;2023-02-28T15:23:39;8.30;;;7.00;;
37445;SDS011;23307;51.136;14.942;2023-02-28T15:26:10;10.17;;;7.07;;
37445;SDS011;23307;51.136;14.942;2023-02-28T15:28:40;10.50;;;7.53;;
37445;SDS011;23307;51.136;14.942;2023-02-28T15:31:18;8.83;;;7.33;;
37445;SDS011;23307;51.136;14.942;2023-02-28T15:33:57;10.60;;;7.90;;
37445;SDS011;23307;51.136;14.942;2023-02-28T15:36:31;10.03;;;7.83;;
37445;SDS011;23307;51.136;14.942;2023-02-28T15:39:02;10.17;;;7.47;;
37445;SDS011;23307;51.136;14.942;2023-02-28T15:41:43;9.97;;;7.80;;
37445;SDS011;23307;51.136;14.942;2023-02-28T15:44:16;9.67;;;7.50;;
37445;SDS011;23307;51.136;14.942;2023-02-28T15:49:23;11.80;;;8.57;;
37445;SDS011;23307;51.136;14.942;2023-02-28T15:51:50;11.70;;;8.17;;
37445;SDS011;23307;51.136;14.942;2023-02-28T15:54:22;10.40;;;8.13;;
37445;SDS011;23307;51.136;14.942;2023-02-28T15:56:52;10.73;;;8.20;;
37445;SDS011;23307;51.136;14.942;2023-02-28T15:59:21;12.43;;;8.67;;
37445;SDS011;23307;51.136;14.942;2023-02-28T16:04:55;12.73;;;8.53;;
37445;SDS011;23307;51.136;14.942;2023-02-28T16:07:33;12.50;;;7.87;;
37445;SDS011;23307;51.136;14.942;2023-02-28T16:10:04;12.83;;;9.33;;
37445;SDS011;23307;51.136;14.942;2023-02-28T16:12:31;11.77;;;8.60;;
37445;SDS011;23307;51.136;14.942;2023-02-28T16:14:59;16.43;;;9.50;;
37445;SDS011;23307;51.136;14.942;2023-02-28T16:17:32;12.33;;;8.67;;
37445;SDS011;23307;51.136;14.942;2023-02-28T16:20:05;14.30;;;8.80;;
37445;SDS011;23307;51.136;14.942;2023-02-28T16:22:38;12.77;;;8.53;;
37445;SDS011;23307;51.136;14.942;2023-02-28T16:25:04;13.27;;;8.67;;